createdAt,value
2023-03-13T00:02:46.844Z,5.66
2023-03-13T00:07:50.097Z,5.51
2023-03-13T00:12:52.559Z,5.41
2023-03-13T00:17:54.931Z,5.41
2023-03-13T00:22:57.402Z,5.37
2023-03-13T00:28:00.131Z,5.26
2023-03-13T00:33:02.688Z,5.20
2023-03-13T00:38:05.435Z,5.14
2023-03-13T00:43:08.088Z,5.13
2023-03-13T00:48:10.729Z,5.05
2023-03-13T00:53:13.029Z,4.94
2023-03-13T00:58:15.336Z,4.84
2023-03-13T01:03:17.936Z,4.82
2023-03-13T01:08:20.364Z,4.71
2023-03-13T01:13:22.675Z,4.64
2023-03-13T01:18:26.064Z,4.49
2023-03-13T01:23:29.451Z,4.42
2023-03-13T01:28:32.243Z,4.40
2023-03-13T01:33:34.509Z,4.30
2023-03-13T01:38:36.787Z,4.26
2023-03-13T01:43:39.529Z,4.22
2023-03-13T01:48:48.614Z,4.18
2023-03-13T01:53:51.673Z,4.05
2023-03-13T01:58:54.062Z,4.06
2023-03-13T02:03:56.370Z,4.06
2023-03-13T02:08:58.638Z,4.11
2023-03-13T02:14:01.420Z,4.17
2023-03-13T02:19:04.954Z,4.27
2023-03-13T02:24:07.486Z,4.30
2023-03-13T02:29:10.016Z,4.29
2023-03-13T02:34:12.534Z,4.29
2023-03-13T02:39:14.915Z,4.21
2023-03-13T02:44:17.633Z,4.26
2023-03-13T02:49:20.131Z,4.24
2023-03-13T02:54:23.722Z,4.32
2023-03-13T02:59:26.966Z,4.37
2023-03-13T03:04:29.558Z,4.37
2023-03-13T03:09:32.139Z,4.46
2023-03-13T03:14:34.918Z,4.48
2023-03-13T03:19:37.484Z,4.51
2023-03-13T03:24:39.794Z,4.51
2023-03-13T03:29:42.680Z,4.57
2023-03-13T03:34:45.082Z,4.58
2023-03-13T03:39:47.373Z,4.56
2023-03-13T03:44:49.668Z,4.49
2023-03-13T03:49:53.571Z,4.55
2023-03-13T03:54:56.062Z,4.52
2023-03-13T03:59:59.002Z,4.60
2023-03-13T04:05:01.856Z,4.55
2023-03-13T04:10:05.241Z,4.55
2023-03-13T04:15:07.694Z,4.57
2023-03-13T04:20:13.637Z,4.59
2023-03-13T04:25:25.938Z,4.65
2023-03-13T04:30:28.372Z,4.67
2023-03-13T04:35:32.236Z,4.69
2023-03-13T04:40:34.951Z,4.68
2023-03-13T04:45:37.848Z,4.74
2023-03-13T04:50:41.068Z,4.82
2023-03-13T04:55:43.595Z,4.94
2023-03-13T05:00:49.021Z,5.01
2023-03-13T05:05:51.387Z,5.03
2023-03-13T05:11:03.123Z,5.07
2023-03-13T05:16:05.475Z,5.14
2023-03-13T05:21:08.181Z,5.16
2023-03-13T05:26:10.534Z,5.27
2023-03-13T05:31:14.133Z,5.32
2023-03-13T05:36:16.586Z,5.37
2023-03-13T05:41:19.306Z,5.42
2023-03-13T05:46:24.053Z,5.54
2023-03-13T05:51:26.386Z,5.73
2023-03-13T05:56:28.707Z,5.81
2023-03-13T06:01:31.095Z,5.94
2023-03-13T06:06:43.377Z,6.04
2023-03-13T06:11:52.827Z,6.13
2023-03-13T06:16:56.891Z,6.16
2023-03-13T06:21:59.288Z,6.29
2023-03-13T06:27:01.704Z,6.45
2023-03-13T06:32:04.898Z,6.62
2023-03-13T06:37:07.608Z,6.88
2023-03-13T06:42:19.562Z,7.00
2023-03-13T06:47:22.278Z,7.14
2023-03-13T06:52:37.451Z,7.21
2023-03-13T06:57:44.114Z,7.29
2023-03-13T07:02:47.426Z,7.28
2023-03-13T07:07:49.857Z,7.37
2023-03-13T07:12:52.206Z,7.38
2023-03-13T07:17:54.541Z,7.49
2023-03-13T07:22:57.629Z,7.79
2023-03-13T07:28:01.448Z,7.97
2023-03-13T07:33:03.965Z,8.00
2023-03-13T07:38:09.469Z,8.06
2023-03-13T07:43:11.891Z,8.22
2023-03-13T07:48:14.693Z,8.11
2023-03-13T07:53:21.150Z,8.21
2023-03-13T07:58:23.592Z,8.69
2023-03-13T08:03:25.943Z,9.28
2023-03-13T08:08:28.391Z,9.31
2023-03-13T08:13:31.028Z,9.57
2023-03-13T08:18:35.198Z,9.88
2023-03-13T08:23:37.694Z,10.43
2023-03-13T08:28:40.186Z,10.88
2023-03-13T08:33:43.542Z,10.43
2023-03-13T08:38:46.898Z,9.64
2023-03-13T08:43:49.254Z,9.64
2023-03-13T08:48:51.782Z,10.20
2023-03-13T08:53:54.201Z,10.80
2023-03-13T08:58:56.634Z,11.20
2023-03-13T09:04:03.465Z,11.47
2023-03-13T09:09:07.010Z,12.22
2023-03-13T09:14:09.852Z,12.95
2023-03-13T09:19:12.907Z,13.17
2023-03-13T09:24:15.701Z,13.08
2023-03-13T09:29:18.875Z,13.09
2023-03-13T09:34:23.262Z,13.07
2023-03-13T09:39:26.446Z,13.26
2023-03-13T09:44:28.795Z,13.06
2023-03-13T09:49:32.066Z,13.16
2023-03-13T09:54:35.800Z,13.46
2023-03-13T09:59:40.128Z,14.27
2023-03-13T10:04:42.689Z,14.63
2023-03-13T10:09:45.098Z,15.13
2023-03-13T10:14:47.533Z,15.58
2023-03-13T10:19:49.916Z,15.71
2023-03-13T10:24:52.279Z,15.58
2023-03-13T10:29:55.984Z,15.90
2023-03-13T10:34:58.528Z,16.33
2023-03-13T10:40:00.941Z,16.27
2023-03-13T10:45:03.383Z,16.55
2023-03-13T10:50:15.771Z,16.43
2023-03-13T10:55:28.216Z,16.24
2023-03-13T11:00:30.686Z,16.19
2023-03-13T11:05:33.214Z,16.31
2023-03-13T11:10:37.138Z,16.71
2023-03-13T11:15:40.058Z,16.89
2023-03-13T11:20:42.425Z,16.47
2023-03-13T11:25:45.585Z,16.64
2023-03-13T11:30:48.054Z,16.94
2023-03-13T11:35:50.545Z,17.04
2023-03-13T11:40:53.038Z,16.96
2023-03-13T11:45:55.508Z,16.97
2023-03-13T11:50:58.995Z,16.97
2023-03-13T11:56:01.348Z,16.88
2023-03-13T12:01:13.820Z,16.85
2023-03-13T12:06:27.583Z,17.38
2023-03-13T12:11:30.746Z,17.53
2023-03-13T12:16:33.122Z,17.26
2023-03-13T12:21:36.341Z,17.03
2023-03-13T12:26:38.676Z,16.91
2023-03-13T12:31:40.971Z,17.22
2023-03-13T12:36:43.369Z,17.24
2023-03-13T12:41:46.492Z,17.02
2023-03-13T12:46:48.978Z,17.13
2023-03-13T12:51:51.347Z,17.12
2023-03-13T12:56:53.700Z,17.09
2023-03-13T13:01:56.401Z,17.47
2023-03-13T13:07:01.856Z,17.59
2023-03-13T13:12:14.308Z,17.57
2023-03-13T13:17:18.430Z,17.50
2023-03-13T13:22:20.885Z,17.37
2023-03-13T13:27:23.203Z,17.38
2023-03-13T13:32:26.347Z,17.31
2023-03-13T13:37:30.099Z,17.73
2023-03-13T13:42:45.577Z,18.06
2023-03-13T13:47:47.909Z,17.69
2023-03-13T13:52:50.378Z,17.74
2023-03-13T13:57:52.757Z,17.85
2023-03-13T14:02:55.900Z,17.64
2023-03-13T14:07:59.149Z,17.46
2023-03-13T14:13:01.525Z,17.54
2023-03-13T14:18:03.857Z,17.44
2023-03-13T14:23:06.319Z,17.46
2023-03-13T14:28:08.767Z,17.52
2023-03-13T14:33:11.095Z,17.49
2023-03-13T14:38:14.662Z,17.41
2023-03-13T14:43:17.048Z,17.39
2023-03-13T14:48:19.533Z,17.36
2023-03-13T14:53:21.940Z,17.49
2023-03-13T14:58:24.325Z,17.58
2023-03-13T15:03:27.321Z,17.69
2023-03-13T15:08:39.662Z,17.58
2023-03-13T15:13:42.253Z,17.40
2023-03-13T15:18:44.727Z,17.41
2023-03-13T15:23:48.028Z,17.32
2023-03-13T15:28:50.502Z,17.36
2023-03-13T15:33:52.869Z,17.40
2023-03-13T15:38:55.206Z,17.29
2023-03-13T15:43:57.710Z,17.10
2023-03-13T15:49:00.036Z,17.11
2023-03-13T15:54:04.064Z,16.99
2023-03-13T15:59:07.300Z,16.84
2023-03-13T16:04:10.436Z,16.86
2023-03-13T16:09:12.795Z,16.80
2023-03-13T16:14:15.128Z,16.67
2023-03-13T16:19:18.189Z,16.64
2023-03-13T16:24:20.989Z,16.30
2023-03-13T16:29:24.277Z,15.94
2023-03-13T16:34:27.430Z,15.67
2023-03-13T16:39:29.818Z,15.55
2023-03-13T16:44:32.146Z,15.54
2023-03-13T16:49:35.083Z,15.44
2023-03-13T16:54:37.434Z,15.21
2023-03-13T16:59:39.766Z,15.13
2023-03-13T17:04:44.623Z,14.91
2023-03-13T17:09:47.282Z,14.62
2023-03-13T17:14:49.664Z,14.49
2023-03-13T17:19:52.788Z,14.06
2023-03-13T17:24:55.533Z,13.91
2023-03-13T17:29:58.772Z,13.72
2023-03-13T17:35:01.379Z,13.58
2023-03-13T17:40:05.755Z,13.43
2023-03-13T17:45:08.084Z,13.31
2023-03-13T17:50:10.379Z,13.10
2023-03-13T17:55:13.652Z,12.92
2023-03-13T18:00:15.936Z,12.68
2023-03-13T18:05:18.332Z,12.51
2023-03-13T18:10:20.643Z,12.39
2023-03-13T18:15:24.943Z,12.31
2023-03-13T18:20:27.323Z,12.14
2023-03-13T18:25:29.692Z,12.03
2023-03-13T18:30:32.051Z,11.92
2023-03-13T18:35:34.491Z,11.76
2023-03-13T18:40:37.020Z,11.75
2023-03-13T18:45:39.393Z,11.66
2023-03-13T18:50:41.797Z,11.53
2023-03-13T18:55:45.044Z,11.52
2023-03-13T19:00:47.508Z,11.41
2023-03-13T19:05:49.910Z,11.42
2023-03-13T19:10:53.204Z,11.44
2023-03-13T19:15:55.621Z,11.40
2023-03-13T19:20:58.773Z,11.32
2023-03-13T19:26:01.592Z,11.28
2023-03-13T19:31:04.024Z,11.17
2023-03-13T19:36:06.465Z,10.93
2023-03-13T19:41:08.788Z,11.04
2023-03-13T19:46:12.029Z,10.91
2023-03-13T19:51:15.426Z,10.68
2023-03-13T19:56:18.644Z,10.62
2023-03-13T20:01:21.149Z,10.37
2023-03-13T20:06:23.676Z,10.21
2023-03-13T20:11:26.121Z,10.17
2023-03-13T20:16:30.208Z,10.02
2023-03-13T20:21:33.348Z,9.83
2023-03-13T20:26:36.155Z,9.68
2023-03-13T20:31:39.799Z,9.69
2023-03-13T20:36:42.163Z,9.66
2023-03-13T20:41:44.929Z,9.87
2023-03-13T20:46:47.340Z,9.79
2023-03-13T20:51:49.677Z,9.84
2023-03-13T20:56:52.042Z,9.83
2023-03-13T21:01:54.459Z,9.79
2023-03-13T21:07:04.347Z,9.68
2023-03-13T21:12:06.772Z,9.72
2023-03-13T21:17:12.735Z,9.56
2023-03-13T21:22:17.169Z,9.52
2023-03-13T21:27:20.390Z,9.49
2023-03-13T21:32:23.573Z,9.70
2023-03-13T21:37:26.013Z,9.78
2023-03-13T21:42:29.421Z,9.73
2023-03-13T21:47:36.596Z,9.71
2023-03-13T21:52:41.306Z,9.68
2023-03-13T21:57:45.024Z,9.79
2023-03-13T22:02:47.371Z,9.84
2023-03-13T22:07:49.666Z,9.95
2023-03-13T22:12:52.017Z,10.21
2023-03-13T22:17:54.796Z,10.78
2023-03-13T22:22:57.892Z,11.04
2023-03-13T22:28:00.197Z,11.12
2023-03-13T22:33:03.958Z,11.05
2023-03-13T22:38:07.116Z,11.00
2023-03-13T22:43:10.264Z,11.00
2023-03-13T22:48:13.341Z,10.95
2023-03-13T22:53:16.322Z,10.97
2023-03-13T22:58:18.637Z,11.00
2023-03-13T23:03:21.046Z,10.86
2023-03-13T23:08:33.467Z,10.69
2023-03-13T23:13:40.483Z,10.56
2023-03-13T23:18:44.396Z,10.31
2023-03-13T23:23:47.142Z,10.06
2023-03-13T23:28:49.443Z,10.00
2023-03-13T23:33:51.783Z,9.87
2023-03-13T23:38:54.514Z,9.67
2023-03-13T23:43:57.397Z,9.70
2023-03-13T23:48:59.711Z,9.64
2023-03-13T23:54:04.993Z,9.47
2023-03-13T23:59:18.348Z,9.41
